sensor_id;sensor_type;location;lat;lon;timestamp;P1;durP1;ratioP1;P2;durP2;ratioP2
48847;SDS011;36611;51.638;5.784;2022-08-05T00:00:17;9.80;;;4.68;;
48847;SDS011;36611;51.638;5.784;2022-08-05T00:02:46;8.50;;;5.20;;
48847;SDS011;36611;51.638;5.784;2022-08-05T00:05:20;6.72;;;4.63;;
48847;SDS011;36611;51.638;5.784;2022-08-05T00:08:07;6.28;;;5.20;;
48847;SDS011;36611;51.638;5.784;2022-08-05T00:10:55;7.25;;;5.05;;
48847;SDS011;36611;51.638;5.784;2022-08-05T00:13:32;8.18;;;5.22;;
48847;SDS011;36611;51.638;5.784;2022-08-05T00:16:07;7.13;;;4.80;;
48847;SDS011;36611;51.638;5.784;2022-08-05T00:18:37;7.80;;;4.88;;
48847;SDS011;36611;51.638;5.784;2022-08-05T00:21:07;5.63;;;4.68;;
48847;SDS011;36611;51.638;5.784;2022-08-05T00:23:39;9.00;;;4.88;;
48847;SDS011;36611;51.638;5.784;2022-08-05T00:26:19;7.07;;;4.78;;
48847;SDS011;36611;51.638;5.784;2022-08-05T00:28:47;7.28;;;4.80;;
48847;SDS011;36611;51.638;5.784;2022-08-05T00:31:15;5.40;;;4.88;;
48847;SDS011;36611;51.638;5.784;2022-08-05T00:34:05;8.48;;;5.03;;
48847;SDS011;36611;51.638;5.784;2022-08-05T00:36:52;7.43;;;4.78;;
48847;SDS011;36611;51.638;5.784;2022-08-05T00:39:39;8.82;;;4.90;;
48847;SDS011;36611;51.638;5.784;2022-08-05T00:45:04;8.32;;;5.20;;
48847;SDS011;36611;51.638;5.784;2022-08-05T00:47:36;6.65;;;5.20;;
48847;SDS011;36611;51.638;5.784;2022-08-05T00:50:23;8.02;;;4.82;;
48847;SDS011;36611;51.638;5.784;2022-08-05T00:55:21;6.63;;;4.78;;
48847;SDS011;36611;51.638;5.784;2022-08-05T00:58:08;6.18;;;4.65;;
48847;SDS011;36611;51.638;5.784;2022-08-05T01:00:36;6.57;;;5.03;;
48847;SDS011;36611;51.638;5.784;2022-08-05T01:03:05;6.13;;;4.65;;
48847;SDS011;36611;51.638;5.784;2022-08-05T01:05:33;7.57;;;4.63;;
48847;SDS011;36611;51.638;5.784;2022-08-05T01:08:00;7.45;;;4.95;;
48847;SDS011;36611;51.638;5.784;2022-08-05T01:10:51;6.55;;;4.43;;
48847;SDS011;36611;51.638;5.784;2022-08-05T01:13:35;7.45;;;4.82;;
48847;SDS011;36611;51.638;5.784;2022-08-05T01:30:48;9.70;;;4.30;;
48847;SDS011;36611;51.638;5.784;2022-08-05T01:33:22;5.97;;;4.40;;
48847;SDS011;36611;51.638;5.784;2022-08-05T01:35:51;7.50;;;4.30;;
48847;SDS011;36611;51.638;5.784;2022-08-05T01:38:22;7.18;;;4.05;;
48847;SDS011;36611;51.638;5.784;2022-08-05T01:40:58;11.48;;;4.43;;
48847;SDS011;36611;51.638;5.784;2022-08-05T01:43:30;6.88;;;3.78;;
48847;SDS011;36611;51.638;5.784;2022-08-05T01:45:59;7.75;;;3.97;;
48847;SDS011;36611;51.638;5.784;2022-08-05T01:48:41;7.10;;;4.63;;
48847;SDS011;36611;51.638;5.784;2022-08-05T01:51:16;5.05;;;4.00;;
48847;SDS011;36611;51.638;5.784;2022-08-05T01:53:45;8.48;;;4.32;;
48847;SDS011;36611;51.638;5.784;2022-08-05T01:56:24;7.35;;;4.50;;
48847;SDS011;36611;51.638;5.784;2022-08-05T01:59:15;8.93;;;4.55;;
48847;SDS011;36611;51.638;5.784;2022-08-05T02:01:45;7.55;;;4.50;;
48847;SDS011;36611;51.638;5.784;2022-08-05T02:04:16;5.78;;;3.90;;
48847;SDS011;36611;51.638;5.784;2022-08-05T02:06:46;5.50;;;4.15;;
48847;SDS011;36611;51.638;5.784;2022-08-05T02:09:13;6.10;;;4.07;;
48847;SDS011;36611;51.638;5.784;2022-08-05T02:11:45;5.57;;;4.60;;
48847;SDS011;36611;51.638;5.784;2022-08-05T02:15:02;7.25;;;4.47;;
48847;SDS011;36611;51.638;5.784;2022-08-05T02:17:15;7.85;;;4.07;;
48847;SDS011;36611;51.638;5.784;2022-08-05T02:20:06;7.30;;;3.90;;
48847;SDS011;36611;51.638;5.784;2022-08-05T02:22:45;6.47;;;4.15;;
48847;SDS011;36611;51.638;5.784;2022-08-05T02:25:30;8.32;;;4.82;;
48847;SDS011;36611;51.638;5.784;2022-08-05T02:28:15;8.75;;;4.63;;
48847;SDS011;36611;51.638;5.784;2022-08-05T02:30:56;6.40;;;4.70;;
48847;SDS011;36611;51.638;5.784;2022-08-05T02:33:29;8.70;;;4.40;;
48847;SDS011;36611;51.638;5.784;2022-08-05T02:36:04;7.10;;;4.40;;
48847;SDS011;36611;51.638;5.784;2022-08-05T02:38:34;7.25;;;4.35;;
48847;SDS011;36611;51.638;5.784;2022-08-05T02:41:03;7.38;;;4.63;;
48847;SDS011;36611;51.638;5.784;2022-08-05T02:43:46;6.53;;;4.90;;
48847;SDS011;36611;51.638;5.784;2022-08-05T02:46:34;8.38;;;4.70;;
48847;SDS011;36611;51.638;5.784;2022-08-05T02:49:28;7.35;;;5.07;;
48847;SDS011;36611;51.638;5.784;2022-08-05T02:52:10;5.40;;;4.65;;
48847;SDS011;36611;51.638;5.784;2022-08-05T02:54:56;7.22;;;4.53;;
48847;SDS011;36611;51.638;5.784;2022-08-05T02:57:27;7.35;;;4.05;;
48847;SDS011;36611;51.638;5.784;2022-08-05T03:00:15;6.43;;;4.13;;
48847;SDS011;36611;51.638;5.784;2022-08-05T03:02:42;9.93;;;5.00;;
48847;SDS011;36611;51.638;5.784;2022-08-05T03:05:12;8.18;;;4.75;;
48847;SDS011;36611;51.638;5.784;2022-08-05T03:07:40;9.55;;;5.15;;
48847;SDS011;36611;51.638;5.784;2022-08-05T03:10:28;7.00;;;4.78;;
48847;SDS011;36611;51.638;5.784;2022-08-05T03:12:59;9.57;;;5.03;;
48847;SDS011;36611;51.638;5.784;2022-08-05T03:15:25;9.57;;;5.03;;
48847;SDS011;36611;51.638;5.784;2022-08-05T03:17:53;7.90;;;4.80;;
48847;SDS011;36611;51.638;5.784;2022-08-05T03:20:24;8.20;;;5.32;;
48847;SDS011;36611;51.638;5.784;2022-08-05T03:22:53;8.02;;;5.28;;
48847;SDS011;36611;51.638;5.784;2022-08-05T03:25:23;9.48;;;5.90;;
48847;SDS011;36611;51.638;5.784;2022-08-05T03:28:10;12.73;;;5.68;;
48847;SDS011;36611;51.638;5.784;2022-08-05T03:30:39;7.38;;;5.32;;
48847;SDS011;36611;51.638;5.784;2022-08-05T03:33:08;13.20;;;6.32;;
48847;SDS011;36611;51.638;5.784;2022-08-05T03:35:35;7.35;;;5.50;;
48847;SDS011;36611;51.638;5.784;2022-08-05T03:38:06;8.65;;;5.82;;
48847;SDS011;36611;51.638;5.784;2022-08-05T03:40:39;9.15;;;5.70;;
48847;SDS011;36611;51.638;5.784;2022-08-05T03:43:18;10.20;;;5.72;;
48847;SDS011;36611;51.638;5.784;2022-08-05T03:46:05;9.18;;;5.50;;
48847;SDS011;36611;51.638;5.784;2022-08-05T03:48:33;11.25;;;6.07;;
48847;SDS011;36611;51.638;5.784;2022-08-05T03:51:15;10.77;;;5.80;;
48847;SDS011;36611;51.638;5.784;2022-08-05T03:54:13;9.25;;;6.00;;
48847;SDS011;36611;51.638;5.784;2022-08-05T03:57:04;7.80;;;6.30;;
48847;SDS011;36611;51.638;5.784;2022-08-05T03:59:45;8.07;;;6.50;;
48847;SDS011;36611;51.638;5.784;2022-08-05T04:02:22;9.98;;;6.20;;
48847;SDS011;36611;51.638;5.784;2022-08-05T04:05:13;11.60;;;6.72;;
48847;SDS011;36611;51.638;5.784;2022-08-05T04:07:42;13.38;;;6.80;;
48847;SDS011;36611;51.638;5.784;2022-08-05T04:10:23;13.68;;;7.78;;
48847;SDS011;36611;51.638;5.784;2022-08-05T04:12:56;11.38;;;7.18;;
48847;SDS011;36611;51.638;5.784;2022-08-05T04:15:24;11.38;;;7.05;;
48847;SDS011;36611;51.638;5.784;2022-08-05T04:18:02;9.88;;;7.75;;
48847;SDS011;36611;51.638;5.784;2022-08-05T04:20:34;9.88;;;6.90;;
48847;SDS011;36611;51.638;5.784;2022-08-05T04:23:02;11.20;;;7.43;;
48847;SDS011;36611;51.638;5.784;2022-08-05T04:25:29;11.85;;;7.00;;
48847;SDS011;36611;51.638;5.784;2022-08-05T04:28:16;7.47;;;6.22;;
48847;SDS011;36611;51.638;5.784;2022-08-05T04:30:43;10.45;;;6.53;;
48847;SDS011;36611;51.638;5.784;2022-08-05T04:33:15;9.35;;;6.40;;
48847;SDS011;36611;51.638;5.784;2022-08-05T04:36:01;8.73;;;6.30;;
48847;SDS011;36611;51.638;5.784;2022-08-05T04:38:48;10.35;;;6.38;;
48847;SDS011;36611;51.638;5.784;2022-08-05T04:41:17;7.28;;;6.30;;
48847;SDS011;36611;51.638;5.784;2022-08-05T04:43:45;9.38;;;6.85;;
48847;SDS011;36611;51.638;5.784;2022-08-05T04:46:18;7.60;;;6.47;;
48847;SDS011;36611;51.638;5.784;2022-08-05T04:48:53;15.57;;;7.18;;
48847;SDS011;36611;51.638;5.784;2022-08-05T04:51:24;10.23;;;6.78;;
48847;SDS011;36611;51.638;5.784;2022-08-05T04:53:59;9.93;;;6.53;;
48847;SDS011;36611;51.638;5.784;2022-08-05T04:56:27;9.68;;;6.85;;
48847;SDS011;36611;51.638;5.784;2022-08-05T04:59:00;9.93;;;6.55;;
48847;SDS011;36611;51.638;5.784;2022-08-05T05:01:47;9.93;;;7.35;;
48847;SDS011;36611;51.638;5.784;2022-08-05T05:04:34;8.25;;;5.93;;
48847;SDS011;36611;51.638;5.784;2022-08-05T05:07:03;9.05;;;6.47;;
48847;SDS011;36611;51.638;5.784;2022-08-05T05:09:34;8.88;;;6.05;;
48847;SDS011;36611;51.638;5.784;2022-08-05T05:12:03;10.52;;;6.65;;
48847;SDS011;36611;51.638;5.784;2022-08-05T05:14:31;8.40;;;6.07;;
48847;SDS011;36611;51.638;5.784;2022-08-05T05:17:01;11.93;;;6.55;;
48847;SDS011;36611;51.638;5.784;2022-08-05T05:19:32;10.75;;;6.05;;
48847;SDS011;36611;51.638;5.784;2022-08-05T05:22:09;11.25;;;6.20;;
48847;SDS011;36611;51.638;5.784;2022-08-05T05:24:53;9.70;;;6.10;;
48847;SDS011;36611;51.638;5.784;2022-08-05T05:27:25;11.75;;;5.97;;
48847;SDS011;36611;51.638;5.784;2022-08-05T05:30:14;8.43;;;6.07;;
48847;SDS011;36611;51.638;5.784;2022-08-05T05:33:01;9.68;;;6.72;;
48847;SDS011;36611;51.638;5.784;2022-08-05T05:35:43;8.85;;;6.05;;
48847;SDS011;36611;51.638;5.784;2022-08-05T05:38:13;8.13;;;6.35;;
48847;SDS011;36611;51.638;5.784;2022-08-05T05:40:40;9.40;;;5.50;;
48847;SDS011;36611;51.638;5.784;2022-08-05T05:43:17;8.32;;;6.03;;
48847;SDS011;36611;51.638;5.784;2022-08-05T05:46:05;8.85;;;6.35;;
48847;SDS011;36611;51.638;5.784;2022-08-05T05:48:41;8.70;;;5.80;;
48847;SDS011;36611;51.638;5.784;2022-08-05T05:51:09;12.77;;;6.60;;
48847;SDS011;36611;51.638;5.784;2022-08-05T05:53:41;9.43;;;6.40;;
48847;SDS011;36611;51.638;5.784;2022-08-05T05:56:28;11.35;;;6.35;;
48847;SDS011;36611;51.638;5.784;2022-08-05T05:59:02;11.15;;;6.68;;
48847;SDS011;36611;51.638;5.784;2022-08-05T06:01:35;8.00;;;6.40;;
48847;SDS011;36611;51.638;5.784;2022-08-05T06:04:08;10.45;;;7.07;;
48847;SDS011;36611;51.638;5.784;2022-08-05T06:06:39;8.05;;;6.45;;
48847;SDS011;36611;51.638;5.784;2022-08-05T06:09:07;8.75;;;6.60;;
48847;SDS011;36611;51.638;5.784;2022-08-05T06:11:43;10.07;;;6.93;;
48847;SDS011;36611;51.638;5.784;2022-08-05T06:14:26;9.63;;;7.05;;
48847;SDS011;36611;51.638;5.784;2022-08-05T06:16:54;8.85;;;7.20;;
48847;SDS011;36611;51.638;5.784;2022-08-05T06:19:22;9.23;;;6.78;;
48847;SDS011;36611;51.638;5.784;2022-08-05T06:22:00;9.38;;;6.88;;
48847;SDS011;36611;51.638;5.784;2022-08-05T06:24:40;9.32;;;6.50;;
48847;SDS011;36611;51.638;5.784;2022-08-05T06:27:14;9.43;;;7.30;;
48847;SDS011;36611;51.638;5.784;2022-08-05T06:30:01;11.05;;;6.43;;
48847;SDS011;36611;51.638;5.784;2022-08-05T06:32:43;10.32;;;7.88;;
48847;SDS011;36611;51.638;5.784;2022-08-05T06:35:12;11.02;;;7.30;;
48847;SDS011;36611;51.638;5.784;2022-08-05T06:37:59;9.88;;;7.13;;
48847;SDS011;36611;51.638;5.784;2022-08-05T06:40:36;12.13;;;7.13;;
48847;SDS011;36611;51.638;5.784;2022-08-05T06:43:08;8.82;;;6.57;;
48847;SDS011;36611;51.638;5.784;2022-08-05T06:45:55;12.10;;;7.43;;
48847;SDS011;36611;51.638;5.784;2022-08-05T06:48:32;9.07;;;6.65;;
48847;SDS011;36611;51.638;5.784;2022-08-05T06:51:20;7.78;;;6.93;;
48847;SDS011;36611;51.638;5.784;2022-08-05T06:53:55;10.77;;;7.07;;
48847;SDS011;36611;51.638;5.784;2022-08-05T06:56:27;10.95;;;7.22;;
48847;SDS011;36611;51.638;5.784;2022-08-05T06:58:55;13.38;;;7.38;;
48847;SDS011;36611;51.638;5.784;2022-08-05T07:01:22;9.50;;;7.15;;
48847;SDS011;36611;51.638;5.784;2022-08-05T07:04:01;11.60;;;8.00;;
48847;SDS011;36611;51.638;5.784;2022-08-05T07:06:28;11.43;;;7.45;;
48847;SDS011;36611;51.638;5.784;2022-08-05T07:08:57;12.20;;;7.80;;
48847;SDS011;36611;51.638;5.784;2022-08-05T07:11:24;10.00;;;6.50;;
48847;SDS011;36611;51.638;5.784;2022-08-05T07:13:56;11.40;;;6.40;;
48847;SDS011;36611;51.638;5.784;2022-08-05T07:16:55;10.88;;;6.18;;
48847;SDS011;36611;51.638;5.784;2022-08-05T07:19:45;9.73;;;5.97;;
48847;SDS011;36611;51.638;5.784;2022-08-05T07:22:32;10.48;;;5.97;;
48847;SDS011;36611;51.638;5.784;2022-08-05T07:25:01;7.57;;;5.57;;
48847;SDS011;36611;51.638;5.784;2022-08-05T07:27:49;8.15;;;6.25;;
48847;SDS011;36611;51.638;5.784;2022-08-05T07:30:26;11.77;;;5.75;;
48847;SDS011;36611;51.638;5.784;2022-08-05T07:33:01;12.00;;;6.75;;
48847;SDS011;36611;51.638;5.784;2022-08-05T07:35:34;8.10;;;6.47;;
48847;SDS011;36611;51.638;5.784;2022-08-05T07:38:20;9.60;;;6.43;;
48847;SDS011;36611;51.638;5.784;2022-08-05T07:41:00;10.73;;;6.70;;
48847;SDS011;36611;51.638;5.784;2022-08-05T07:43:55;10.90;;;6.13;;
48847;SDS011;36611;51.638;5.784;2022-08-05T07:46:27;9.82;;;6.60;;
48847;SDS011;36611;51.638;5.784;2022-08-05T07:48:56;10.07;;;6.43;;
48847;SDS011;36611;51.638;5.784;2022-08-05T07:51:30;11.45;;;6.88;;
48847;SDS011;36611;51.638;5.784;2022-08-05T07:54:04;9.63;;;6.40;;
48847;SDS011;36611;51.638;5.784;2022-08-05T07:56:35;10.80;;;6.70;;
48847;SDS011;36611;51.638;5.784;2022-08-05T07:59:22;12.57;;;6.60;;
48847;SDS011;36611;51.638;5.784;2022-08-05T08:02:05;8.85;;;6.03;;
48847;SDS011;36611;51.638;5.784;2022-08-05T08:04:43;10.93;;;5.68;;
48847;SDS011;36611;51.638;5.784;2022-08-05T08:07:12;8.88;;;5.32;;
48847;SDS011;36611;51.638;5.784;2022-08-05T08:09:40;8.57;;;4.75;;
48847;SDS011;36611;51.638;5.784;2022-08-05T08:12:06;10.48;;;5.03;;
48847;SDS011;36611;51.638;5.784;2022-08-05T08:14:54;6.75;;;4.40;;
48847;SDS011;36611;51.638;5.784;2022-08-05T08:17:21;6.97;;;4.45;;
48847;SDS011;36611;51.638;5.784;2022-08-05T08:19:48;9.10;;;4.78;;
48847;SDS011;36611;51.638;5.784;2022-08-05T08:22:35;5.93;;;4.15;;
48847;SDS011;36611;51.638;5.784;2022-08-05T08:25:02;7.63;;;3.38;;
48847;SDS011;36611;51.638;5.784;2022-08-05T08:27:41;8.98;;;3.35;;
48847;SDS011;36611;51.638;5.784;2022-08-05T08:30:13;8.18;;;2.75;;
48847;SDS011;36611;51.638;5.784;2022-08-05T08:33:08;4.43;;;2.20;;
48847;SDS011;36611;51.638;5.784;2022-08-05T08:35:39;6.30;;;2.42;;
48847;SDS011;36611;51.638;5.784;2022-08-05T08:38:26;4.85;;;2.25;;
48847;SDS011;36611;51.638;5.784;2022-08-05T08:41:04;3.47;;;1.60;;
48847;SDS011;36611;51.638;5.784;2022-08-05T08:43:37;5.75;;;1.92;;
48847;SDS011;36611;51.638;5.784;2022-08-05T08:46:26;4.47;;;1.90;;
48847;SDS011;36611;51.638;5.784;2022-08-05T08:48:54;4.53;;;2.33;;
48847;SDS011;36611;51.638;5.784;2022-08-05T08:51:44;3.88;;;2.00;;
48847;SDS011;36611;51.638;5.784;2022-08-05T08:54:32;4.18;;;2.05;;
48847;SDS011;36611;51.638;5.784;2022-08-05T08:57:02;4.60;;;1.60;;
48847;SDS011;36611;51.638;5.784;2022-08-05T09:02:07;6.53;;;1.75;;
48847;SDS011;36611;51.638;5.784;2022-08-05T09:04:35;6.50;;;1.92;;
48847;SDS011;36611;51.638;5.784;2022-08-05T09:07:25;5.32;;;1.40;;
48847;SDS011;36611;51.638;5.784;2022-08-05T09:09:54;3.25;;;1.45;;
48847;SDS011;36611;51.638;5.784;2022-08-05T09:12:21;4.25;;;1.50;;
48847;SDS011;36611;51.638;5.784;2022-08-05T09:14:53;3.45;;;1.50;;
48847;SDS011;36611;51.638;5.784;2022-08-05T09:17:30;3.63;;;1.70;;
48847;SDS011;36611;51.638;5.784;2022-08-05T09:20:11;3.45;;;1.60;;
48847;SDS011;36611;51.638;5.784;2022-08-05T09:25:46;3.63;;;1.77;;
48847;SDS011;36611;51.638;5.784;2022-08-05T09:28:29;5.15;;;1.77;;
48847;SDS011;36611;51.638;5.784;2022-08-05T09:31:00;5.90;;;1.75;;
48847;SDS011;36611;51.638;5.784;2022-08-05T09:34:02;3.03;;;1.63;;
48847;SDS011;36611;51.638;5.784;2022-08-05T09:36:44;3.88;;;1.55;;
48847;SDS011;36611;51.638;5.784;2022-08-05T09:39:24;4.18;;;1.50;;
48847;SDS011;36611;51.638;5.784;2022-08-05T09:42:12;1.92;;;1.60;;
48847;SDS011;36611;51.638;5.784;2022-08-05T09:44:53;3.10;;;1.95;;
48847;SDS011;36611;51.638;5.784;2022-08-05T09:47:23;4.80;;;1.88;;
48847;SDS011;36611;51.638;5.784;2022-08-05T09:50:12;3.10;;;2.00;;
48847;SDS011;36611;51.638;5.784;2022-08-05T09:52:43;4.53;;;2.20;;
48847;SDS011;36611;51.638;5.784;2022-08-05T09:55:12;3.95;;;1.98;;
48847;SDS011;36611;51.638;5.784;2022-08-05T09:57:58;5.80;;;1.40;;
48847;SDS011;36611;51.638;5.784;2022-08-05T10:00:25;3.25;;;1.20;;
48847;SDS011;36611;51.638;5.784;2022-08-05T10:03:00;3.67;;;1.75;;
48847;SDS011;36611;51.638;5.784;2022-08-05T10:05:35;2.83;;;1.80;;
48847;SDS011;36611;51.638;5.784;2022-08-05T10:08:03;5.18;;;2.05;;
48847;SDS011;36611;51.638;5.784;2022-08-05T10:10:51;3.95;;;2.20;;
48847;SDS011;36611;51.638;5.784;2022-08-05T10:13:33;3.92;;;2.05;;
48847;SDS011;36611;51.638;5.784;2022-08-05T10:16:27;4.57;;;2.03;;
48847;SDS011;36611;51.638;5.784;2022-08-05T10:18:55;6.10;;;2.17;;
48847;SDS011;36611;51.638;5.784;2022-08-05T10:21:22;2.00;;;1.40;;
48847;SDS011;36611;51.638;5.784;2022-08-05T10:23:53;3.85;;;1.98;;
48847;SDS011;36611;51.638;5.784;2022-08-05T10:26:25;4.65;;;1.77;;
48847;SDS011;36611;51.638;5.784;2022-08-05T10:28:59;1.98;;;1.23;;
48847;SDS011;36611;51.638;5.784;2022-08-05T10:31:25;2.35;;;1.50;;
48847;SDS011;36611;51.638;5.784;2022-08-05T10:34:13;2.70;;;1.17;;
48847;SDS011;36611;51.638;5.784;2022-08-05T10:36:42;3.05;;;0.93;;
48847;SDS011;36611;51.638;5.784;2022-08-05T10:42:15;3.03;;;0.95;;
48847;SDS011;36611;51.638;5.784;2022-08-05T10:45:00;3.43;;;1.00;;
48847;SDS011;36611;51.638;5.784;2022-08-05T10:47:48;2.50;;;1.00;;
48847;SDS011;36611;51.638;5.784;2022-08-05T10:50:55;3.40;;;0.95;;
48847;SDS011;36611;51.638;5.784;2022-08-05T10:53:57;1.65;;;0.70;;
48847;SDS011;36611;51.638;5.784;2022-08-05T10:56:46;1.45;;;0.60;;
48847;SDS011;36611;51.638;5.784;2022-08-05T10:59:20;1.13;;;0.50;;
48847;SDS011;36611;51.638;5.784;2022-08-05T11:02:16;2.78;;;0.80;;
48847;SDS011;36611;51.638;5.784;2022-08-05T11:05:04;2.20;;;0.40;;
48847;SDS011;36611;51.638;5.784;2022-08-05T11:07:47;1.45;;;0.50;;
48847;SDS011;36611;51.638;5.784;2022-08-05T11:10:29;1.60;;;0.60;;
48847;SDS011;36611;51.638;5.784;2022-08-05T11:12:58;2.05;;;0.50;;
48847;SDS011;36611;51.638;5.784;2022-08-05T11:15:27;3.63;;;0.50;;
48847;SDS011;36611;51.638;5.784;2022-08-05T11:18:30;2.63;;;0.50;;
48847;SDS011;36611;51.638;5.784;2022-08-05T11:20:59;0.80;;;0.30;;
48847;SDS011;36611;51.638;5.784;2022-08-05T11:23:41;1.83;;;0.47;;
48847;SDS011;36611;51.638;5.784;2022-08-05T11:26:38;1.38;;;0.63;;
48847;SDS011;36611;51.638;5.784;2022-08-05T11:29:05;1.73;;;0.63;;
48847;SDS011;36611;51.638;5.784;2022-08-05T11:31:42;1.02;;;0.50;;
48847;SDS011;36611;51.638;5.784;2022-08-05T11:34:35;1.95;;;0.50;;
48847;SDS011;36611;51.638;5.784;2022-08-05T11:37:03;2.13;;;0.50;;
48847;SDS011;36611;51.638;5.784;2022-08-05T11:39:50;3.00;;;0.70;;
48847;SDS011;36611;51.638;5.784;2022-08-05T11:42:26;1.50;;;0.65;;
48847;SDS011;36611;51.638;5.784;2022-08-05T11:44:54;0.88;;;0.50;;
48847;SDS011;36611;51.638;5.784;2022-08-05T11:47:33;9.70;;;0.90;;
48847;SDS011;36611;51.638;5.784;2022-08-05T11:50:15;1.92;;;0.40;;
48847;SDS011;36611;51.638;5.784;2022-08-05T11:52:43;1.00;;;0.50;;
48847;SDS011;36611;51.638;5.784;2022-08-05T11:55:18;4.22;;;0.50;;
48847;SDS011;36611;51.638;5.784;2022-08-05T11:57:45;1.27;;;0.50;;
48847;SDS011;36611;51.638;5.784;2022-08-05T12:00:32;1.90;;;1.00;;
48847;SDS011;36611;51.638;5.784;2022-08-05T12:03:19;3.80;;;0.60;;
48847;SDS011;36611;51.638;5.784;2022-08-05T12:06:01;4.30;;;0.98;;
48847;SDS011;36611;51.638;5.784;2022-08-05T12:10:59;1.05;;;0.50;;
48847;SDS011;36611;51.638;5.784;2022-08-05T12:13:36;2.33;;;0.57;;
48847;SDS011;36611;51.638;5.784;2022-08-05T12:16:16;0.90;;;0.40;;
48847;SDS011;36611;51.638;5.784;2022-08-05T12:18:44;3.63;;;0.70;;
48847;SDS011;36611;51.638;5.784;2022-08-05T12:23:59;4.32;;;0.57;;
48847;SDS011;36611;51.638;5.784;2022-08-05T12:26:37;2.15;;;0.70;;
48847;SDS011;36611;51.638;5.784;2022-08-05T12:29:31;3.08;;;0.90;;
48847;SDS011;36611;51.638;5.784;2022-08-05T12:32:04;1.95;;;0.70;;
48847;SDS011;36611;51.638;5.784;2022-08-05T12:34:36;2.03;;;0.68;;
48847;SDS011;36611;51.638;5.784;2022-08-05T12:37:07;2.42;;;0.70;;
48847;SDS011;36611;51.638;5.784;2022-08-05T12:39:57;2.00;;;0.70;;
48847;SDS011;36611;51.638;5.784;2022-08-05T12:42:29;1.58;;;0.77;;
48847;SDS011;36611;51.638;5.784;2022-08-05T12:45:07;2.30;;;0.80;;
48847;SDS011;36611;51.638;5.784;2022-08-05T12:47:35;3.90;;;0.68;;
48847;SDS011;36611;51.638;5.784;2022-08-05T12:50:12;2.45;;;0.80;;
48847;SDS011;36611;51.638;5.784;2022-08-05T12:52:41;1.55;;;0.70;;
48847;SDS011;36611;51.638;5.784;2022-08-05T12:55:18;2.45;;;0.88;;
48847;SDS011;36611;51.638;5.784;2022-08-05T12:57:49;2.47;;;0.70;;
48847;SDS011;36611;51.638;5.784;2022-08-05T13:00:40;1.48;;;0.65;;
48847;SDS011;36611;51.638;5.784;2022-08-05T13:03:33;2.33;;;1.17;;
48847;SDS011;36611;51.638;5.784;2022-08-05T13:06:07;2.17;;;0.68;;
48847;SDS011;36611;51.638;5.784;2022-08-05T13:08:37;1.83;;;0.45;;
48847;SDS011;36611;51.638;5.784;2022-08-05T13:11:05;5.80;;;1.65;;
48847;SDS011;36611;51.638;5.784;2022-08-05T13:13:33;1.75;;;0.50;;
48847;SDS011;36611;51.638;5.784;2022-08-05T13:16:23;1.38;;;0.65;;
48847;SDS011;36611;51.638;5.784;2022-08-05T13:18:54;2.45;;;0.70;;
48847;SDS011;36611;51.638;5.784;2022-08-05T13:21:24;4.13;;;0.70;;
48847;SDS011;36611;51.638;5.784;2022-08-05T13:24:03;1.23;;;0.40;;
48847;SDS011;36611;51.638;5.784;2022-08-05T13:26:31;3.78;;;0.93;;
48847;SDS011;36611;51.638;5.784;2022-08-05T13:28:58;1.40;;;0.60;;
48847;SDS011;36611;51.638;5.784;2022-08-05T13:31:26;2.55;;;0.70;;
48847;SDS011;36611;51.638;5.784;2022-08-05T13:34:13;1.42;;;0.63;;
48847;SDS011;36611;51.638;5.784;2022-08-05T13:36:51;2.55;;;0.80;;
48847;SDS011;36611;51.638;5.784;2022-08-05T13:39:18;6.53;;;1.20;;
48847;SDS011;36611;51.638;5.784;2022-08-05T13:42:05;3.13;;;0.73;;
48847;SDS011;36611;51.638;5.784;2022-08-05T13:44:40;0.60;;;0.40;;
48847;SDS011;36611;51.638;5.784;2022-08-05T13:47:14;3.30;;;0.50;;
48847;SDS011;36611;51.638;5.784;2022-08-05T13:50:01;1.70;;;0.60;;
48847;SDS011;36611;51.638;5.784;2022-08-05T13:52:32;2.08;;;0.73;;
48847;SDS011;36611;51.638;5.784;2022-08-05T13:55:03;4.40;;;0.60;;
48847;SDS011;36611;51.638;5.784;2022-08-05T13:57:35;2.17;;;0.33;;
48847;SDS011;36611;51.638;5.784;2022-08-05T14:00:17;1.88;;;0.50;;
48847;SDS011;36611;51.638;5.784;2022-08-05T14:02:57;1.02;;;0.47;;
48847;SDS011;36611;51.638;5.784;2022-08-05T14:05:26;4.60;;;0.80;;
48847;SDS011;36611;51.638;5.784;2022-08-05T14:08:14;2.60;;;0.60;;
48847;SDS011;36611;51.638;5.784;2022-08-05T14:10:52;2.47;;;0.80;;
48847;SDS011;36611;51.638;5.784;2022-08-05T14:13:32;4.60;;;0.80;;
48847;SDS011;36611;51.638;5.784;2022-08-05T14:15:59;1.02;;;0.43;;
48847;SDS011;36611;51.638;5.784;2022-08-05T14:18:35;1.30;;;0.50;;
48847;SDS011;36611;51.638;5.784;2022-08-05T14:21:03;1.48;;;0.40;;
48847;SDS011;36611;51.638;5.784;2022-08-05T14:23:53;3.30;;;0.60;;
48847;SDS011;36611;51.638;5.784;2022-08-05T14:26:19;1.70;;;0.60;;
48847;SDS011;36611;51.638;5.784;2022-08-05T14:29:06;2.30;;;0.50;;
48847;SDS011;36611;51.638;5.784;2022-08-05T14:31:42;3.40;;;0.60;;
48847;SDS011;36611;51.638;5.784;2022-08-05T14:34:37;1.63;;;0.50;;
48847;SDS011;36611;51.638;5.784;2022-08-05T14:37:05;1.48;;;0.73;;
48847;SDS011;36611;51.638;5.784;2022-08-05T14:39:38;1.17;;;0.43;;
48847;SDS011;36611;51.638;5.784;2022-08-05T14:42:22;4.57;;;0.80;;
48847;SDS011;36611;51.638;5.784;2022-08-05T14:44:54;0.47;;;0.30;;
48847;SDS011;36611;51.638;5.784;2022-08-05T14:47:22;5.18;;;0.52;;
48847;SDS011;36611;51.638;5.784;2022-08-05T14:50:09;1.83;;;0.63;;
48847;SDS011;36611;51.638;5.784;2022-08-05T14:52:43;1.80;;;0.40;;
48847;SDS011;36611;51.638;5.784;2022-08-05T14:55:26;3.30;;;0.35;;
48847;SDS011;36611;51.638;5.784;2022-08-05T14:58:05;1.70;;;0.47;;
48847;SDS011;36611;51.638;5.784;2022-08-05T15:00:37;1.23;;;0.47;;
48847;SDS011;36611;51.638;5.784;2022-08-05T15:03:25;2.75;;;0.50;;
48847;SDS011;36611;51.638;5.784;2022-08-05T15:05:59;3.22;;;0.65;;
48847;SDS011;36611;51.638;5.784;2022-08-05T15:08:39;2.03;;;0.60;;
48847;SDS011;36611;51.638;5.784;2022-08-05T15:11:32;5.40;;;0.70;;
48847;SDS011;36611;51.638;5.784;2022-08-05T15:14:19;1.75;;;0.68;;
48847;SDS011;36611;51.638;5.784;2022-08-05T15:17:06;1.35;;;0.57;;
48847;SDS011;36611;51.638;5.784;2022-08-05T15:19:54;2.25;;;0.50;;
48847;SDS011;36611;51.638;5.784;2022-08-05T15:22:21;2.80;;;0.70;;
48847;SDS011;36611;51.638;5.784;2022-08-05T15:24:53;1.27;;;0.43;;
48847;SDS011;36611;51.638;5.784;2022-08-05T15:27:20;1.75;;;0.77;;
48847;SDS011;36611;51.638;5.784;2022-08-05T15:29:51;2.97;;;0.75;;
48847;SDS011;36611;51.638;5.784;2022-08-05T15:32:22;1.27;;;0.50;;
48847;SDS011;36611;51.638;5.784;2022-08-05T15:34:55;1.85;;;0.50;;
48847;SDS011;36611;51.638;5.784;2022-08-05T15:37:23;1.02;;;0.52;;
48847;SDS011;36611;51.638;5.784;2022-08-05T15:40:10;1.10;;;0.40;;
48847;SDS011;36611;51.638;5.784;2022-08-05T15:43:01;2.22;;;0.50;;
48847;SDS011;36611;51.638;5.784;2022-08-05T15:45:45;1.40;;;0.52;;
48847;SDS011;36611;51.638;5.784;2022-08-05T15:48:11;1.90;;;0.60;;
48847;SDS011;36611;51.638;5.784;2022-08-05T15:50:40;1.20;;;0.50;;
48847;SDS011;36611;51.638;5.784;2022-08-05T15:53:12;2.35;;;0.57;;
48847;SDS011;36611;51.638;5.784;2022-08-05T15:55:40;1.80;;;0.57;;
48847;SDS011;36611;51.638;5.784;2022-08-05T15:58:27;1.65;;;0.50;;
48847;SDS011;36611;51.638;5.784;2022-08-05T16:01:00;0.68;;;0.52;;
48847;SDS011;36611;51.638;5.784;2022-08-05T16:03:46;3.17;;;0.68;;
48847;SDS011;36611;51.638;5.784;2022-08-05T16:06:16;4.57;;;0.60;;
48847;SDS011;36611;51.638;5.784;2022-08-05T16:08:46;3.53;;;0.73;;
48847;SDS011;36611;51.638;5.784;2022-08-05T16:11:18;1.35;;;0.52;;
48847;SDS011;36611;51.638;5.784;2022-08-05T16:14:08;1.10;;;0.50;;
48847;SDS011;36611;51.638;5.784;2022-08-05T16:16:42;0.70;;;0.40;;